Time;durP1;ratioP1;P1;durP2;ratioP2;P2;SDS_P1;SDS_P2;PMS_P1;PMS_P2;Temp;Humidity;BMP_temperature;BMP_pressure;BME280_temperature;BME280_humidity;BME280_pressure;Samples;Min_cycle;Max_cycle;Signal;HPM_P1;HPM_P2
2023/01/03 00:01:08;;;;;;;29.58;20.88;;;;;;;9.91;100.00;102493.38;2094873;28;20052;-74
2023/01/03 00:02:31;;;;;;;30.38;21.08;;;;;;;9.95;100.00;102492.66;2095059;28;20478;-73
2023/01/03 00:03:54;;;;;;;28.75;20.00;;;;;;;9.96;100.00;102495.38;2095299;28;20041;-74
2023/01/03 00:05:17;;;;;;;29.38;20.40;;;;;;;9.97;100.00;102489.28;2094924;28;20044;-74
2023/01/03 00:06:41;;;;;;;31.88;20.67;;;;;;;9.98;100.00;102498.97;2095202;28;20111;-74
2023/01/03 00:08:03;;;;;;;31.48;22.02;;;;;;;9.99;100.00;102491.94;2095457;28;20048;-74
2023/01/03 00:09:25;;;;;;;31.08;19.92;;;;;;;9.98;100.00;102488.41;2095060;28;20052;-75
2023/01/03 00:10:47;;;;;;;32.25;20.13;;;;;;;9.98;100.00;102492.78;2089451;28;20080;-74
2023/01/03 00:13:45;;;;;;;29.27;20.35;;;;;;;9.91;100.00;102486.31;2103366;28;20052;-74
2023/01/03 00:15:08;;;;;;;26.63;19.83;;;;;;;9.87;100.00;102481.75;2093950;28;20124;-74
2023/01/03 00:16:30;;;;;;;28.58;18.90;;;;;;;9.84;100.00;102481.63;2087858;28;20147;-74
2023/01/03 00:17:52;;;;;;;26.65;18.63;;;;;;;9.84;100.00;102486.00;2094907;28;20109;-74
2023/01/03 00:19:15;;;;;;;28.27;19.63;;;;;;;9.83;100.00;102479.81;2085461;28;20107;-74
2023/01/03 00:20:38;;;;;;;28.52;19.55;;;;;;;9.83;100.00;102479.81;2090050;28;20041;-74
2023/01/03 00:22:00;;;;;;;28.10;18.98;;;;;;;9.88;100.00;102477.38;2086487;28;20087;-75
2023/01/03 00:23:22;;;;;;;28.42;19.48;;;;;;;9.89;100.00;102479.19;2093987;28;20051;-74
2023/01/03 00:24:45;;;;;;;28.17;18.30;;;;;;;9.88;100.00;102480.94;2089390;28;20045;-74
2023/01/03 00:26:10;;;;;;;27.80;19.73;;;;;;;9.87;100.00;102479.13;2088257;28;20049;-74
2023/01/03 00:27:32;;;;;;;29.50;20.38;;;;;;;9.86;100.00;102486.94;2088707;28;20060;-74
2023/01/03 00:28:54;;;;;;;29.70;20.45;;;;;;;9.87;100.00;102478.22;2094041;28;20045;-74
2023/01/03 00:30:16;;;;;;;31.73;20.15;;;;;;;9.87;100.00;102484.38;2094754;28;20135;-75
2023/01/03 00:31:38;;;;;;;29.33;20.23;;;;;;;9.87;100.00;102481.75;2094903;28;20048;-74
2023/01/03 00:33:01;;;;;;;46.40;33.28;;;;;;;9.87;100.00;102480.84;2096446;28;20446;-75
2023/01/03 00:34:25;;;;;;;42.75;29.15;;;;;;;9.86;100.00;102486.94;2101959;28;20043;-75
2023/01/03 00:35:47;;;;;;;52.88;39.83;;;;;;;9.84;100.00;102479.00;2080174;28;20073;-74
2023/01/03 00:37:10;;;;;;;54.53;39.55;;;;;;;9.82;100.00;102475.38;2089816;28;20041;-75
2023/01/03 00:38:32;;;;;;;42.45;32.05;;;;;;;9.81;100.00;102475.28;2089272;28;20848;-74
2023/01/03 00:39:55;;;;;;;44.50;33.65;;;;;;;9.81;100.00;102473.56;2100486;28;20040;-74
2023/01/03 00:41:17;;;;;;;42.83;34.05;;;;;;;9.82;100.00;102480.66;2103105;28;20087;-74
2023/01/03 00:44:17;;;;;;;62.83;55.75;;;;;;;9.79;100.00;102476.94;2104885;28;20040;-74
2023/01/03 00:45:39;;;;;;;58.50;50.97;;;;;;;9.76;100.00;102480.38;2097518;28;20041;-75
2023/01/03 00:47:02;;;;;;;44.15;37.35;;;;;;;9.72;100.00;102481.03;2102680;28;20453;-73
2023/01/03 00:48:23;;;;;;;42.35;35.25;;;;;;;9.71;100.00;102481.91;2089274;28;20614;-75
2023/01/03 00:49:47;;;;;;;35.72;30.00;;;;;;;9.69;100.00;102478.28;2086510;28;20052;-75
2023/01/03 00:51:10;;;;;;;41.78;32.13;;;;;;;9.70;100.00;102471.25;2078129;28;20053;-74
2023/01/03 00:52:33;;;;;;;37.63;29.52;;;;;;;9.70;100.00;102476.53;2091818;28;20044;-74
2023/01/03 00:53:58;;;;;;;37.70;31.95;;;;;;;9.70;100.00;102473.91;2094630;28;20036;-74
2023/01/03 00:55:20;;;;;;;33.53;25.25;;;;;;;9.71;100.00;102470.44;2086729;28;20057;-74
2023/01/03 00:56:44;;;;;;;35.03;23.27;;;;;;;9.75;100.00;102468.00;2080936;28;20048;-75
2023/01/03 00:58:05;;;;;;;33.42;23.00;;;;;;;9.82;100.00;102471.81;2092454;28;20055;-75
2023/01/03 00:59:27;;;;;;;31.17;21.10;;;;;;;9.89;100.00;102471.28;2088704;28;20072;-74
2023/01/03 01:00:49;;;;;;;32.42;21.73;;;;;;;9.93;100.00;102470.56;2089260;28;20736;-75
2023/01/03 01:02:11;;;;;;;29.98;19.85;;;;;;;9.96;100.00;102470.72;2089024;28;20052;-75
2023/01/03 01:03:33;;;;;;;31.33;20.88;;;;;;;9.97;100.00;102475.19;2094693;28;20041;-74
2023/01/03 01:04:57;;;;;;;28.98;20.00;;;;;;;9.97;100.00;102465.53;2088709;28;20045;-74
2023/01/03 01:06:22;;;;;;;28.85;19.20;;;;;;;9.96;100.00;102461.06;2092133;28;20089;-74
2023/01/03 01:07:44;;;;;;;26.55;18.92;;;;;;;9.93;100.00;102471.47;2094642;28;20064;-74
2023/01/03 01:09:10;;;;;;;28.85;18.98;;;;;;;9.96;100.00;102463.72;2094411;28;20071;-75
2023/01/03 01:10:31;;;;;;;31.58;19.63;;;;;;;9.95;100.00;102461.91;2086435;28;20063;-74
2023/01/03 01:11:55;;;;;;;29.77;19.98;;;;;;;9.96;100.00;102468.09;2101342;28;20048;-74
2023/01/03 01:13:16;;;;;;;31.08;19.40;;;;;;;9.95;100.00;102458.38;2079796;28;20049;-74
2023/01/03 01:14:39;;;;;;;27.55;19.48;;;;;;;9.95;100.00;102466.28;2091148;28;20048;-74
2023/01/03 01:16:02;;;;;;;27.15;19.27;;;;;;;9.96;100.00;102463.72;2102067;28;20036;-74
2023/01/03 01:17:27;;;;;;;28.88;19.35;;;;;;;9.95;100.00;102463.66;2088042;28;20130;-74
2023/01/03 01:18:49;;;;;;;26.67;19.05;;;;;;;9.94;100.00;102465.38;2091581;28;20045;-74
2023/01/03 01:20:13;;;;;;;30.48;20.35;;;;;;;9.95;100.00;102471.56;2085684;28;20133;-74
2023/01/03 01:21:34;;;;;;;28.65;19.92;;;;;;;9.93;100.00;102463.56;2082892;28;20068;-75
2023/01/03 01:22:57;;;;;;;31.35;22.45;;;;;;;9.92;100.00;102461.75;2091418;28;20047;-74
2023/01/03 01:24:20;;;;;;;34.70;23.38;;;;;;;9.90;100.00;102465.19;2085358;28;20809;-75
2023/01/03 01:25:41;;;;;;;31.98;21.17;;;;;;;9.87;100.00;102467.66;2083779;28;20056;-75
2023/01/03 01:27:04;;;;;;;;;;;;;;;9.80;100.00;102470.84;2085770;28;20061;-74
2023/01/03 01:28:25;;;;;;;29.95;19.13;;;;;;;9.78;100.00;102462.84;2103999;28;20273;-74
2023/01/03 01:29:48;;;;;;;29.20;20.05;;;;;;;9.82;100.00;102463.91;2097115;28;20053;-74
2023/01/03 01:31:12;;;;;;;28.25;18.92;;;;;;;9.83;100.00;102463.09;2099887;28;20502;-75
2023/01/03 01:32:35;;;;;;;28.00;18.85;;;;;;;9.84;100.00;102463.16;2088840;28;20140;-74
2023/01/03 01:33:57;;;;;;;26.95;19.65;;;;;;;9.86;100.00;102463.22;2088775;28;20056;-74
2023/01/03 01:35:20;;;;;;;;;;;;;;;9.82;100.00;102469.19;2089096;28;20885;-74
2023/01/03 01:36:43;;;;;;;27.65;18.70;;;;;;;9.83;100.00;102466.63;2086263;28;19920;-75
2023/01/03 01:38:05;;;;;;;29.17;19.58;;;;;;;9.84;100.00;102463.16;2093650;28;20071;-74
2023/01/03 01:39:28;;;;;;;32.42;22.98;;;;;;;9.84;100.00;102472.81;2096249;28;20045;-74
2023/01/03 01:40:50;;;;;;;36.63;27.52;;;;;;;9.82;100.00;102458.63;2094319;28;20040;-74
2023/01/03 01:45:39;;;;;;;68.32;54.22;;;;;;;9.82;100.00;102458.63;2088019;28;20044;-74
2023/01/03 01:47:02;;;;;;;81.25;69.72;;;;;;;9.82;100.00;102459.53;2094678;28;20063;-74
2023/01/03 01:48:25;;;;;;;92.32;82.45;;;;;;;9.78;100.00;102457.56;2094413;28;20052;-74
2023/01/03 01:49:51;;;;;;;68.90;61.38;;;;;;;9.74;100.00;102460.00;2096635;28;20048;-74
2023/01/03 01:51:15;;;;;;;59.22;50.22;;;;;;;9.69;100.00;102457.16;2080540;28;20047;-75
2023/01/03 01:52:40;;;;;;;49.13;41.30;;;;;;;9.66;100.00;102453.47;2096874;28;20113;-74
2023/01/03 01:54:06;;;;;;;54.70;44.63;;;;;;;9.61;100.00;102455.91;2079261;28;20187;-74
2023/01/03 01:55:35;;;;;;;49.83;40.83;;;;;;;9.58;100.00;102447.88;2084415;28;20504;-75
2023/01/03 01:56:57;;;;;;;39.38;32.97;;;;;;;9.55;100.00;102453.88;2094974;28;20396;-75
2023/01/03 01:58:21;;;;;;;36.45;26.77;;;;;;;9.54;100.00;102457.34;2091586;28;20133;-76
2023/01/03 01:59:43;;;;;;;33.67;22.52;;;;;;;9.56;100.00;102458.34;2086161;28;20453;-75
2023/01/03 02:01:08;;;;;;;41.30;31.02;;;;;;;9.57;100.00;102454.88;2085894;28;20041;-75
2023/01/03 02:02:29;;;;;;;36.63;25.48;;;;;;;9.57;100.00;102454.88;2085060;28;20504;-75
2023/01/03 02:04:00;;;;;;;37.85;24.48;;;;;;;9.55;100.00;102453.88;2097887;28;20044;-74
2023/01/03 02:05:22;;;;;;;31.20;21.20;;;;;;;9.53;100.00;102450.28;2086670;28;20136;-75
2023/01/03 02:06:46;;;;;;;31.90;20.48;;;;;;;9.52;100.00;102453.72;2093932;28;20045;-75
2023/01/03 02:08:08;;;;;;;34.22;21.20;;;;;;;9.50;100.00;102452.78;2092820;28;20052;-74
2023/01/03 02:09:33;;;;;;;30.40;20.50;;;;;;;9.48;100.00;102451.78;2085906;28;20060;-74
2023/01/03 02:11:10;;;;;;;30.00;20.02;;;;;;;9.46;100.00;102452.53;2091524;28;20072;-74
2023/01/03 02:14:36;;;;;;;31.48;20.13;;;;;;;9.40;100.00;102450.53;2098916;28;20056;-74
2023/01/03 02:16:10;;;;;;;30.63;19.83;;;;;;;9.40;100.00;102441.72;2102521;28;20050;-75
2023/01/03 02:17:42;;;;;;;29.90;19.70;;;;;;;9.40;100.00;102449.63;2088251;28;20071;-74
2023/01/03 02:19:27;;;;;;;30.88;21.25;;;;;;;9.38;100.00;102453.94;2085382;28;20136;-75
2023/01/03 02:21:23;;;;;;;29.42;19.02;;;;;;;9.35;100.00;102453.78;2080134;28;20444;-75
2023/01/03 02:23:15;;;;;;;26.67;18.23;;;;;;;9.31;100.00;102454.47;2071833;28;20405;-75
2023/01/03 02:25:14;;;;;;;31.25;20.00;;;;;;;9.27;100.00;102444.59;2088391;28;20049;-74
2023/01/03 02:26:49;;;;;;;31.77;19.45;;;;;;;9.26;100.00;102441.06;2096465;28;20059;-74
2023/01/03 02:28:47;;;;;;;32.67;19.65;;;;;;;9.25;100.00;102455.09;2095708;28;20075;-74
2023/01/03 02:30:30;;;;;;;30.70;19.58;;;;;;;9.25;100.00;102444.53;2096128;28;20044;-75
2023/01/03 02:32:01;;;;;;;31.92;19.52;;;;;;;9.24;100.00;102445.38;2095949;28;20040;-74
2023/01/03 02:33:31;;;;;;;30.65;20.73;;;;;;;9.26;100.00;102446.31;2092559;28;20037;-75
2023/01/03 02:35:03;;;;;;;30.77;20.17;;;;;;;9.27;100.00;102445.50;2093486;28;20127;-75
2023/01/03 02:36:35;;;;;;;34.10;21.38;;;;;;;9.25;100.00;102452.44;2086404;28;20773;-75
2023/01/03 02:38:08;;;;;;;36.75;21.92;;;;;;;9.26;100.00;102445.41;2092275;28;20048;-75
2023/01/03 02:39:37;;;;;;;33.92;22.63;;;;;;;9.27;100.00;102448.13;2095011;28;20516;-75
2023/01/03 02:41:05;;;;;;;43.80;29.48;;;;;;;9.28;100.00;102438.50;2085749;28;20362;-74
2023/01/03 02:44:19;;;;;;;38.88;26.67;;;;;;;9.24;100.00;102442.72;2096348;28;20618;-75
2023/01/03 02:46:02;;;;;;;40.10;25.48;;;;;;;9.25;100.00;102444.53;2102921;28;20044;-74
2023/01/03 02:47:26;;;;;;;42.90;30.85;;;;;;;9.27;100.00;102441.97;2096771;28;20059;-74
2023/01/03 02:48:54;;;;;;;42.75;28.67;;;;;;;9.32;100.00;102446.63;2103567;28;20512;-74
2023/01/03 02:50:19;;;;;;;53.75;38.25;;;;;;;9.35;100.00;102446.78;2096229;28;20052;-75
2023/01/03 02:51:45;;;;;;;47.17;32.35;;;;;;;9.40;100.00;102436.44;2094369;28;20056;-75
2023/01/03 02:53:13;;;;;;;55.72;39.95;;;;;;;9.45;100.00;102445.50;2102410;28;20125;-74
2023/01/03 02:54:40;;;;;;;46.10;32.88;;;;;;;9.49;100.00;102437.78;2089054;28;20144;-74
2023/01/03 02:56:09;;;;;;;49.38;37.58;;;;;;;9.53;100.00;102439.72;2086396;28;20075;-74
2023/01/03 02:57:36;;;;;;;53.40;37.63;;;;;;;9.58;100.00;102434.69;2086524;28;20064;-74
2023/01/03 02:59:01;;;;;;;49.28;34.40;;;;;;;9.60;100.00;102436.53;2100403;28;20040;-75
2023/01/03 03:00:27;;;;;;;59.00;44.72;;;;;;;9.63;100.00;102440.16;2102369;28;20516;-74
2023/01/03 03:01:53;;;;;;;51.85;39.05;;;;;;;9.61;100.00;102434.81;2094399;28;20045;-73
2023/01/03 03:03:17;;;;;;;45.13;32.53;;;;;;;9.62;100.00;102444.53;2089326;28;20052;-74
2023/01/03 03:04:42;;;;;;;40.55;27.13;;;;;;;9.57;100.00;102439.06;2087965;28;20099;-74
2023/01/03 03:06:11;;;;;;;34.40;23.20;;;;;;;9.53;100.00;102442.34;2094134;28;20504;-74
2023/01/03 03:07:38;;;;;;;35.78;22.38;;;;;;;9.50;100.00;102444.88;2087739;28;20045;-74
2023/01/03 03:09:00;;;;;;;32.75;21.17;;;;;;;9.49;100.00;102439.53;2098154;28;20036;-75
2023/01/03 03:13:45;;;;;;;33.28;21.27;;;;;;;9.50;100.00;102449.25;2091278;28;20120;-74
2023/01/03 03:15:11;;;;;;;30.15;20.77;;;;;;;9.51;100.00;102441.41;2092254;28;20107;-75
2023/01/03 03:16:49;;;;;;;32.95;21.13;;;;;;;9.52;100.00;102448.47;2094401;28;20059;-75
2023/01/03 03:18:17;;;;;;;34.00;20.63;;;;;;;9.55;100.00;102448.63;2084386;28;20532;-75
2023/01/03 03:24:52;;;;;;;31.13;20.42;;;;;;;9.55;100.00;102448.63;2096476;28;20048;-75
2023/01/03 03:26:19;;;;;;;37.40;19.90;;;;;;;9.58;100.00;102451.38;2094445;28;20052;-75
2023/01/03 03:29:20;;;;;;;33.40;19.88;;;;;;;9.64;100.00;102460.44;2062937;28;20061;-74
2023/01/03 03:30:46;;;;;;;34.45;20.90;;;;;;;9.68;100.00;102452.72;2090421;28;20047;-74
2023/01/03 03:32:07;;;;;;;33.83;20.67;;;;;;;9.72;100.00;102459.94;2077563;28;20126;-74
2023/01/03 03:33:35;;;;;;;29.98;19.55;;;;;;;9.76;100.00;102455.72;2089318;28;20132;-74
2023/01/03 03:34:58;;;;;;;32.33;21.08;;;;;;;9.78;100.00;102456.69;2095967;28;20044;-74
2023/01/03 03:36:29;;;;;;;31.85;20.60;;;;;;;9.78;100.00;102457.56;2095308;28;20082;-74
2023/01/03 03:37:54;;;;;;;33.22;20.75;;;;;;;9.77;100.00;102454.91;2087475;28;20400;-74
2023/01/03 03:46:27;;;;;;;40.58;27.75;;;;;;;9.89;100.00;102461.63;2098053;28;20048;-74
2023/01/03 03:47:56;;;;;;;43.72;29.70;;;;;;;9.92;100.00;102468.75;2097988;28;20090;-74
2023/01/03 03:49:38;;;;;;;48.92;35.63;;;;;;;9.92;100.00;102467.03;2103196;28;20407;-74
2023/01/03 03:51:04;;;;;;;53.60;39.90;;;;;;;9.91;100.00;102472.25;2097848;28;20040;-74
2023/01/03 03:52:32;;;;;;;50.22;40.47;;;;;;;9.89;100.00;102471.28;2086835;28;20052;-74
2023/01/03 03:53:54;;;;;;;35.67;26.38;;;;;;;9.84;100.00;102463.16;2101643;28;20047;-75
2023/01/03 03:55:20;;;;;;;42.78;35.90;;;;;;;9.81;100.00;102470.00;2086212;28;20037;-75
2023/01/03 03:56:46;;;;;;;49.95;43.17;;;;;;;9.74;100.00;102467.94;2091091;28;20105;-74
2023/01/03 03:58:13;;;;;;;52.88;44.75;;;;;;;9.69;100.00;102474.72;2090291;28;20136;-74
2023/01/03 03:59:37;;;;;;;39.53;31.48;;;;;;;9.62;100.00;102480.53;2093713;28;20049;-74
2023/01/03 04:01:02;;;;;;;46.03;37.83;;;;;;;9.56;100.00;102474.16;2095346;28;20775;-74
2023/01/03 04:02:25;;;;;;;40.03;29.13;;;;;;;9.53;100.00;102470.47;2094834;28;20524;-74
2023/01/03 04:03:50;;;;;;;32.63;22.42;;;;;;;9.49;100.00;102481.69;2086747;28;20056;-74
2023/01/03 04:05:19;;;;;;;31.27;21.58;;;;;;;9.45;100.00;102475.34;2101032;28;20392;-74
2023/01/03 04:06:44;;;;;;;33.40;21.40;;;;;;;9.45;100.00;102480.63;2089164;28;20741;-75
2023/01/03 04:08:07;;;;;;;31.52;22.25;;;;;;;9.45;100.00;102477.13;2081141;28;20057;-74
2023/01/03 04:09:28;;;;;;;34.20;23.20;;;;;;;9.44;100.00;102478.84;2101000;28;20036;-74
2023/01/03 04:10:51;;;;;;;36.13;23.13;;;;;;;9.42;100.00;102482.22;2097013;28;20044;-75
2023/01/03 04:12:13;;;;;;;32.92;22.77;;;;;;;9.40;100.00;102482.16;2095034;28;20382;-74
2023/01/03 04:13:37;;;;;;;33.53;22.65;;;;;;;9.39;100.00;102472.44;2086607;28;20053;-74
2023/01/03 04:14:59;;;;;;;33.90;22.48;;;;;;;9.37;100.00;102475.84;2099332;28;20044;-74
2023/01/03 04:16:21;;;;;;;33.67;21.60;;;;;;;9.37;100.00;102479.38;2097060;28;20095;-75
2023/01/03 04:17:44;;;;;;;33.33;22.40;;;;;;;9.38;100.00;102485.56;2090277;28;20037;-74
2023/01/03 04:19:06;;;;;;;32.15;20.20;;;;;;;9.41;100.00;102481.31;2094767;28;20053;-75
2023/01/03 04:20:30;;;;;;;36.05;22.05;;;;;;;9.44;100.00;102481.50;2089201;28;20493;-75
2023/01/03 04:21:51;;;;;;;32.22;20.95;;;;;;;9.48;100.00;102487.78;2100543;28;20044;-75
2023/01/03 04:23:14;;;;;;;31.20;20.70;;;;;;;9.49;100.00;102484.34;2088830;28;20044;-74
2023/01/03 04:24:35;;;;;;;31.17;19.08;;;;;;;9.49;100.00;102484.34;2091877;28;20048;-74
2023/01/03 04:25:58;;;;;;;31.70;19.85;;;;;;;9.49;100.00;102486.97;2087674;28;20048;-74
2023/01/03 04:27:21;;;;;;;29.98;18.95;;;;;;;9.47;100.00;102489.53;2092090;28;20121;-74
2023/01/03 04:28:43;;;;;;;33.10;19.42;;;;;;;9.46;100.00;102492.06;2093082;28;20045;-74
2023/01/03 04:30:07;;;;;;;33.20;20.20;;;;;;;9.46;100.00;102486.81;2095110;28;20052;-74
2023/01/03 04:31:28;;;;;;;32.25;20.10;;;;;;;9.45;100.00;102488.53;2094828;28;20056;-74
2023/01/03 04:32:51;;;;;;;29.55;18.80;;;;;;;9.43;100.00;102490.22;2093522;28;20060;-74
2023/01/03 04:34:13;;;;;;;30.25;19.73;;;;;;;9.41;100.00;102488.34;2097641;28;20044;-74
2023/01/03 04:35:36;;;;;;;31.23;19.75;;;;;;;9.39;100.00;102492.63;2095292;28;20138;-75
2023/01/03 04:36:58;;;;;;;31.38;19.42;;;;;;;9.36;100.00;102501.28;2096775;28;20083;-74
2023/01/03 04:38:21;;;;;;;31.25;19.90;;;;;;;9.32;100.00;102499.31;2084585;28;20037;-75
2023/01/03 04:39:42;;;;;;;34.00;20.20;;;;;;;9.30;100.00;102501.00;2091567;28;20047;-74
2023/01/03 04:41:06;;;;;;;36.70;21.70;;;;;;;9.29;100.00;102501.81;2094686;28;20044;-74
2023/01/03 04:44:08;;;;;;;39.47;24.38;;;;;;;9.26;100.00;102504.28;2097272;28;20057;-74
2023/01/03 04:45:30;;;;;;;;;;;;;;;9.19;100.00;102503.09;2099155;28;20040;-74
2023/01/03 04:46:51;;;;;;;35.88;22.17;;;;;;;9.19;100.00;102502.19;2086532;28;19925;-75
2023/01/03 04:48:13;;;;;;;32.20;21.48;;;;;;;9.19;100.00;102507.47;2094963;28;20037;-75
2023/01/03 04:49:36;;;;;;;33.90;22.98;;;;;;;9.18;100.00;102509.22;2089017;28;20052;-75
2023/01/03 04:50:59;;;;;;;39.83;24.00;;;;;;;9.19;100.00;102510.09;2094696;28;20037;-74
2023/01/03 04:52:22;;;;;;;37.70;24.92;;;;;;;9.18;100.00;102508.31;2080799;28;20055;-74
2023/01/03 04:53:43;;;;;;;37.78;24.33;;;;;;;9.19;100.00;102505.72;2092162;28;20428;-74
2023/01/03 04:55:07;;;;;;;40.03;25.00;;;;;;;9.19;100.00;102515.34;2086879;28;20142;-74
2023/01/03 04:56:29;;;;;;;50.40;31.10;;;;;;;9.18;100.00;102505.69;2092408;28;20830;-73
2023/01/03 04:57:52;;;;;;;50.50;32.70;;;;;;;9.19;100.00;102510.09;2095549;28;20094;-73
2023/01/03 04:59:15;;;;;;;58.13;38.70;;;;;;;9.19;100.00;102505.72;2095852;28;20123;-74
2023/01/03 05:00:36;;;;;;;59.72;39.63;;;;;;;9.23;100.00;102504.16;2100858;28;20101;-75
2023/01/03 05:01:58;;;;;;;69.47;44.08;;;;;;;9.27;100.00;102519.28;2097160;28;20051;-75
2023/01/03 05:03:19;;;;;;;84.75;60.75;;;;;;;9.31;100.00;102517.72;2094711;28;20033;-75
2023/01/03 05:04:42;;;;;;;93.53;68.75;;;;;;;9.33;100.00;102523.94;2101876;28;20135;-75
2023/01/03 05:06:07;;;;;;;74.68;48.67;;;;;;;9.33;100.00;102516.03;2090873;28;20061;-75
2023/01/03 05:07:30;;;;;;;75.40;53.88;;;;;;;9.32;100.00;102523.03;2085958;28;20104;-75
2023/01/03 05:08:53;;;;;;;80.03;52.08;;;;;;;9.34;100.00;102520.50;2094028;28;20051;-75
2023/01/03 05:10:14;;;;;;;76.63;52.25;;;;;;;9.33;100.00;102524.84;2094085;28;20157;-74
2023/01/03 05:11:37;;;;;;;74.60;48.65;;;;;;;9.33;100.00;102519.59;2097444;28;20157;-75
2023/01/03 05:13:01;;;;;;;70.00;48.00;;;;;;;9.34;100.00;102520.50;2095402;28;20488;-74
2023/01/03 05:14:23;;;;;;;68.65;46.75;;;;;;;9.34;100.00;102521.38;2093290;28;21939;-75
2023/01/03 05:15:45;;;;;;;74.20;49.88;;;;;;;9.34;100.00;102515.22;2094663;28;20389;-74
2023/01/03 05:17:07;;;;;;;67.60;46.28;;;;;;;9.32;100.00;102523.03;2094324;28;20093;-74
2023/01/03 05:18:30;;;;;;;65.35;45.50;;;;;;;9.33;100.00;102519.59;2092765;28;20482;-75
2023/01/03 05:26:32;;;;;;;60.53;38.40;;;;;;;9.28;100.00;102526.38;2066802;28;20066;-74
2023/01/03 05:27:55;;;;;;;57.60;38.95;;;;;;;9.32;100.00;102528.31;2093378;28;20037;-74
2023/01/03 05:29:20;;;;;;;54.67;37.90;;;;;;;9.36;100.00;102527.66;2077992;28;20057;-74
2023/01/03 05:30:41;;;;;;;56.33;37.70;;;;;;;9.39;100.00;102534.78;2089835;28;20036;-75
2023/01/03 05:32:04;;;;;;;54.92;36.17;;;;;;;9.44;100.00;102531.56;2094489;28;20048;-75
2023/01/03 05:33:26;;;;;;;62.33;39.60;;;;;;;9.49;100.00;102530.06;2086230;28;20041;-74
2023/01/03 05:34:49;;;;;;;61.97;40.42;;;;;;;9.57;100.00;102536.59;2101861;28;20352;-74
2023/01/03 05:36:10;;;;;;;54.05;33.60;;;;;;;9.64;100.00;102536.91;2083873;28;20174;-74
2023/01/03 05:37:34;;;;;;;60.45;37.60;;;;;;;9.70;100.00;102532.81;2093431;28;20059;-74
2023/01/03 05:38:55;;;;;;;57.03;34.10;;;;;;;9.76;100.00;102535.75;2096660;28;20090;-74
2023/01/03 05:40:18;;;;;;;56.25;36.88;;;;;;;9.80;100.00;102537.69;2090328;28;20041;-74
2023/01/03 05:43:20;;;;;;;64.10;42.35;;;;;;;9.94;100.00;102548.88;2104795;28;20435;-75
2023/01/03 05:44:43;;;;;;;69.13;44.95;;;;;;;10.00;100.00;102542.16;2097528;28;20052;-74
2023/01/03 05:46:04;;;;;;;81.38;53.78;;;;;;;10.08;100.00;102546.91;2096015;28;20057;-74
2023/01/03 05:47:26;;;;;;;58.63;40.33;;;;;;;10.14;100.00;102540.16;2092879;28;20189;-75
2023/01/03 05:48:48;;;;;;;54.90;38.65;;;;;;;10.20;100.00;102540.47;2094054;28;20093;-74
2023/01/03 05:50:10;;;;;;;46.40;32.10;;;;;;;10.25;100.00;102540.69;2102357;28;20052;-74
2023/01/03 05:51:33;;;;;;;55.20;38.70;;;;;;;10.27;100.00;102545.19;2097002;28;20138;-75
2023/01/03 05:52:55;;;;;;;66.93;47.70;;;;;;;10.30;100.00;102550.63;2101711;28;20040;-75
2023/01/03 05:54:20;;;;;;;63.78;46.65;;;;;;;10.30;100.00;102545.34;2095625;28;20467;-75
2023/01/03 05:55:41;;;;;;;64.57;46.70;;;;;;;10.31;100.00;102546.22;2100274;28;20317;-74
2023/01/03 05:57:03;;;;;;;72.38;52.50;;;;;;;10.29;100.00;102548.81;2086128;28;20045;-74
2023/01/03 05:58:26;;;;;;;62.42;48.58;;;;;;;10.27;100.00;102549.56;2099740;28;20044;-74
2023/01/03 05:59:47;;;;;;;58.75;45.83;;;;;;;10.25;100.00;102545.94;2096111;28;20045;-74
2023/01/03 06:01:10;;;;;;;56.03;43.90;;;;;;;10.26;100.00;102548.66;2090257;28;20044;-74
2023/01/03 06:02:33;;;;;;;55.80;44.53;;;;;;;10.24;100.00;102545.03;2085496;28;20068;-74
2023/01/03 06:03:54;;;;;;;58.85;44.67;;;;;;;10.25;100.00;102546.84;2091520;28;20048;-74
2023/01/03 06:05:16;;;;;;;59.63;46.15;;;;;;;10.24;100.00;102547.69;2085653;28;20151;-75
2023/01/03 06:06:39;;;;;;;61.75;50.53;;;;;;;10.27;100.00;102547.84;2091345;28;20051;-75
2023/01/03 06:08:02;;;;;;;59.53;47.38;;;;;;;10.33;100.00;102550.75;2088424;28;20037;-74
2023/01/03 06:09:24;;;;;;;59.83;46.78;;;;;;;10.39;100.00;102548.38;2090969;28;20075;-74
2023/01/03 06:10:46;;;;;;;67.93;50.97;;;;;;;10.46;100.00;102548.66;2093592;28;20052;-75
2023/01/03 06:12:08;;;;;;;62.83;46.17;;;;;;;10.49;100.00;102546.16;2102464;28;20496;-74
2023/01/03 06:13:31;;;;;;;55.08;42.00;;;;;;;10.56;100.00;102556.19;2092971;28;20051;-74
2023/01/03 06:14:53;;;;;;;57.10;40.83;;;;;;;10.59;100.00;102544.00;2093878;28;20398;-74
2023/01/03 06:17:59;;;;;;;54.85;44.45;;;;;;;10.67;100.00;102547.88;2088369;28;20034;-74
2023/01/03 06:19:21;;;;;;;54.88;43.33;;;;;;;10.69;100.00;102555.88;2099789;28;20598;-75
2023/01/03 06:20:44;;;;;;;55.30;43.72;;;;;;;10.68;100.00;102552.34;2105082;28;20505;-75
2023/01/03 06:22:10;;;;;;;54.88;42.75;;;;;;;10.67;100.00;102550.53;2100338;28;20044;-74
2023/01/03 06:23:32;;;;;;;51.95;42.42;;;;;;;10.67;100.00;102552.25;2092936;28;20394;-75
2023/01/03 06:24:55;;;;;;;53.78;43.00;;;;;;;10.68;100.00;102554.06;2089965;28;20107;-74
2023/01/03 06:26:18;;;;;;;51.60;41.67;;;;;;;10.68;100.00;102552.34;2091287;28;20036;-75
2023/01/03 06:27:40;;;;;;;53.42;40.67;;;;;;;10.70;100.00;102553.28;2095710;28;20381;-74
2023/01/03 06:29:02;;;;;;;48.42;39.75;;;;;;;10.76;100.00;102552.69;2102187;28;20043;-75
2023/01/03 06:30:25;;;;;;;53.03;40.90;;;;;;;10.82;100.00;102554.69;2085247;28;20053;-74
2023/01/03 06:31:46;;;;;;;51.30;42.22;;;;;;;10.91;100.00;102550.66;2085286;28;20055;-74
2023/01/03 06:33:10;;;;;;;48.58;36.35;;;;;;;11.03;100.00;102561.75;2094182;28;20048;-74
2023/01/03 06:34:33;;;;;;;46.10;34.72;;;;;;;11.14;100.00;102557.84;2079881;28;20037;-75
2023/01/03 06:35:54;;;;;;;47.63;37.08;;;;;;;11.28;100.00;102561.06;2091158;28;20570;-74
2023/01/03 06:37:17;;;;;;;50.10;39.15;;;;;;;11.36;100.00;102558.72;2088313;28;20096;-75
2023/01/03 06:38:41;;;;;;;48.42;37.67;;;;;;;11.40;100.00;102560.66;2093440;28;20542;-74
2023/01/03 06:40:04;;;;;;;44.67;38.47;;;;;;;11.42;100.00;102559.00;2088130;28;20142;-75
2023/01/03 06:41:27;;;;;;;45.50;36.92;;;;;;;11.44;100.00;102563.50;2086408;28;20153;-75
2023/01/03 06:42:48;;;;;;;44.83;35.30;;;;;;;11.45;100.00;102565.31;2091082;28;20041;-75
2023/01/03 06:44:11;;;;;;;45.05;35.45;;;;;;;11.47;100.00;102557.44;2094738;28;20058;-74
2023/01/03 06:53:55;;;;;;;43.20;34.83;;;;;;;11.31;100.00;102565.56;2102381;28;20178;-75
2023/01/03 06:55:18;;;;;;;44.50;33.97;;;;;;;11.36;100.00;102569.31;2088024;28;20464;-75
2023/01/03 06:56:41;;;;;;;40.55;33.95;;;;;;;11.42;100.00;102565.16;2090584;28;20049;-75
2023/01/03 06:58:03;;;;;;;39.88;30.98;;;;;;;11.49;100.00;102561.03;2093886;28;20243;-75
2023/01/03 06:59:26;;;;;;;40.38;32.45;;;;;;;11.53;100.00;102568.28;2093230;28;20499;-75
2023/01/03 07:00:48;;;;;;;42.08;32.67;;;;;;;11.54;100.00;102570.97;2084860;28;20501;-74
2023/01/03 07:02:11;;;;;;;37.65;31.88;;;;;;;11.53;100.00;102576.22;2085621;28;20187;-75
2023/01/03 07:03:33;;;;;;;37.63;31.85;;;;;;;11.51;100.00;102568.19;2089731;28;20052;-76
2023/01/03 07:04:55;;;;;;;37.40;31.02;;;;;;;11.48;100.00;102569.84;2093157;28;20040;-75
2023/01/03 07:06:17;;;;;;;41.95;33.03;;;;;;;11.45;100.00;102564.41;2093855;28;20090;-75
2023/01/03 07:07:40;;;;;;;37.50;30.42;;;;;;;11.44;100.00;102573.16;2092663;28;20049;-75
2023/01/03 07:09:04;;;;;;;33.80;29.08;;;;;;;11.43;100.00;102574.00;2093758;28;20134;-75
2023/01/03 07:10:25;;;;;;;37.92;29.33;;;;;;;11.40;100.00;102568.59;2094813;28;20047;-75
2023/01/03 07:11:48;;;;;;;37.28;29.95;;;;;;;11.42;100.00;102574.88;2095454;28;20057;-75